Decatur, IL (62521)

2:17 PM CDT on August 28, 2016 (GMT -0500)
Cherrydale | | Change Station

Elev 689 ft 39.82 °N, 88.91 °W | Updated 56 seconds ago

Partly Cloudy
Partly Cloudy
90.0 °F
Feels Like 96 °F
N
0.9
Wind Variable Wind from NE
Gusts 2.5 mph

Today
High -- | Low -- °F
--% Chance of Precip.
Yesterday
High -- | Low -- °F
Precip. -- in
Pressure 30.14 in
Visibility 10.0 miles
Clouds Few 4400 ft
Heat Index 96 °F
Dew Point 71 °F
Humidity 54%
Rainfall 0.00 in
Snow Depth Not available.
6:20 AM 7:32 PM
Waning Crescent, 14% visible
METAR KDEC 281854Z 21005G18KT 10SM FEW044 32/21 A3016 RMK AO2 SLP205 T03170211
Pressure 30.14 in
Visibility 10.0 miles
Clouds Few 4400 ft
Heat Index 96 °F
Dew Point 71 °F
Humidity 54%
Rainfall 0.00 in
Snow Depth Not available.
6:20 AM 7:32 PM
Waning Crescent, 14% visible
METAR KDEC 281854Z 21005G18KT 10SM FEW044 32/21 A3016 RMK AO2 SLP205 T03170211

10-Day Weather Forecast

Almanac

Astronomy

Aug. 28, 2016 Rise Set
Actual Time
Civil Twilight
Nautical Twilight
Astronomical Twilight
Moon
Length of Visible Light
Length of Day
Tomorrow will be .
, % of the Moon is Illuminated

Today's Extremes

State Highs State Lows

Community

WunderPhotos

Upload Photos

1,935,660 photos uploaded!

WunderBlog® & News

Nearby

Air Quality

  Air Quality AQ Index Pollutant
Not available.

Snow Depth

Station Depth Elevation

Earthquake Activity

City Distance Mag. Time & Date
Minimum magnitude displayed is 2.5.

Coastal Water Temperatures

Place Temperature

Stations

Nearby Weather Stations

Station Location Temp. Windchill Dew Point Humidity Wind Precip. Elev Updated Type
                   

Watches & Warnings

There are currently no watches in effect.